CheckWX is a tool to help pilots better visualize weather data.  It is not intended as a substitute for an official pre-flight weather briefing.

16:26:57 UTC

KIWA METAR
Phoenix-Mesa Gateway Airport
Phoenix, Arizona, USA
Current

37 mins ago

KIWA 161550Z 13010KT 10SM FEW120 SCT200 31/16 A2996
Observed
Sep-16 @ 15:50 UTC
Wind
  • 130° at 10 KTS
Visibility
10 SM
Flight Rules
VFR
Cloud Levels
  • Few at 12,000' AGL
  • Scattered at 20,000' AGL
Temperature
31°C / 88°F
Dewpoint
16°C / 61°F
Heat Index
31°C / 88°F
Humidity
40%
Altimeter
29.96" Hg
Pressure
1014.52 hPa
Previous

2 hours ago

KIWA 161455Z 12010KT 10SM SCT120 BKN200 29/16 A2994
Observed
Sep-16 @ 14:55 UTC
Wind
  • 120° at 10 KTS
Visibility
10 SM
Flight Rules
VFR
Cloud Levels
  • Scattered at 12,000' AGL
  • Broken at 20,000' AGL
Temperature
29°C / 84°F
Dewpoint
16°C / 61°F
Heat Index
29°C / 84°F
Humidity
45%
Altimeter
29.94" Hg
Pressure
1013.92 hPa
Previous

3 hours ago

KIWA 161350Z 16004KT 10SM SCT120 SCT200 25/16 A2994
Observed
Sep-16 @ 13:50 UTC
Wind
  • 160° at 4 KTS
Visibility
10 SM
Flight Rules
VFR
Cloud Levels
  • Scattered at 12,000' AGL
  • Scattered at 20,000' AGL
Temperature
25°C / 77°F
Dewpoint
16°C / 61°F
Humidity
57%
Altimeter
29.94" Hg
Pressure
1013.92 hPa